Time;durP1;ratioP1;P1;durP2;ratioP2;P2;SDS_P1;SDS_P2;PMS_P1;PMS_P2;Temp;Humidity;BMP_temperature;BMP_pressure;BME280_temperature;BME280_humidity;BME280_pressure;Samples;Min_cycle;Max_cycle;Signal;HPM_P1;HPM_P2
2022/09/19 00:00:08;;;;;;;;;;;;;;;;;;350004;28;924;-63
2022/09/19 00:00:19;;;;;;;;;;;;;;;;;;350029;28;920;-63
2022/09/19 00:00:29;;;;;;;;;;;;;;;;;;350018;28;960;-62
2022/09/19 00:00:40;;;;;;;;;;;;;;;;;;349987;28;901;-62
2022/09/19 00:00:51;;;;;;;;;;;;;;;;;;350019;28;960;-63
2022/09/19 00:01:07;;;;;;;;;;;;;;;;;;350077;28;817;-62
2022/09/19 00:01:18;;;;;;;;;;;;;;;;;;350042;28;983;-63
2022/09/19 00:01:30;;;;;;;;;;;;;;;;;;349937;28;1079;-63
2022/09/19 00:01:41;;;;;;;;;;;;;;;;;;349980;28;925;-62
2022/09/19 00:01:52;;;;;;;;;;;;;;;;;;350015;27;1094;-63
2022/09/19 00:02:02;;;;;;;;;;;;;;;;;;350042;28;1042;-63
2022/09/19 00:02:13;;;;;;;;;;;;;;;;;;348171;28;1410;-62
2022/09/19 00:02:23;;;;;;;;;;;;;;;;;;348656;28;836;-63
2022/09/19 00:02:33;;;;;;;;;;;;;;;;;;348609;28;1839;-62
2022/09/19 00:02:43;;;;;;;;;;;;;;;;;;348652;28;782;-62
2022/09/19 00:02:54;;;;;;;;;;;;;;;;;;348597;28;901;-62
2022/09/19 00:03:04;;;;;;;;;;;;;;;;;;348654;28;960;-62
2022/09/19 00:03:14;;;;;;;;;;;;;;;;;;348625;28;924;-62
2022/09/19 00:03:24;;;;;;;;;;;;;;;;;;348650;28;964;-62
2022/09/19 00:03:35;;;;;;;;;;;;;;;;;;348553;28;845;-63
2022/09/19 00:03:50;;;;;;;;;;;;;;;;;;348578;28;940;-62
2022/09/19 00:04:02;;;;;;;;;;;;;;;;;;348651;28;849;-62
2022/09/19 00:04:14;;;;;;;;;;;;;;;;;;348604;28;937;-62
2022/09/19 00:04:30;;;;;;;;;;;;;;;;;;348591;28;925;-62
2022/09/19 00:04:40;;;;;;;;;;;;;;;;;;348674;28;991;-62
2022/09/19 00:04:50;;;;;;;;;;;;;;;;;;348659;28;813;-62
2022/09/19 00:05:00;;;;;;;;;;;;;;;;;;348652;28;904;-63
2022/09/19 00:05:10;;;;;;;;;;;;;;;;;;348551;28;948;-62
2022/09/19 00:05:20;;;;;;;;;;;;;;;;;;348665;28;810;-62
2022/09/19 00:05:31;;;;;;;;;;;;;;;;;;348596;28;976;-62
2022/09/19 00:05:41;;;;;;;;;;;;;;;;;;348652;28;961;-62
2022/09/19 00:05:52;;;;;;;;;;;;;;;;;;348536;28;957;-62
2022/09/19 00:06:03;;;;;;;;;;;;;;;;;;348642;28;940;-62
2022/09/19 00:06:14;;;;;;;;;;;;;;;;;;348432;28;1394;-62
2022/09/19 00:06:26;;;;;;;;;;;;;;;;;;349603;28;1514;-62
2022/09/19 00:06:38;;;;;;;;;;;;;;;;;;350012;28;936;-62
2022/09/19 00:06:49;;;;;;;;;;;;;;;;;;350039;28;876;-63
2022/09/19 00:07:00;;;;;;;;;;;;;;;;;;350014;28;967;-62
2022/09/19 00:07:10;;;;;;;;;;;;;;;;;;349207;28;1410;-62
2022/09/19 00:07:21;;;;;;;;;;;;;;;;;;348601;28;1008;-62
2022/09/19 00:07:31;;;;;;;;;;;;;;;;;;348611;28;944;-62
2022/09/19 00:07:43;;;;;;;;;;;;;;;;;;348660;28;901;-63
2022/09/19 00:07:53;;;;;;;;;;;;;;;;;;348642;28;948;-62
2022/09/19 00:08:03;;;;;;;;;;;;;;;;;;348589;28;925;-62
2022/09/19 00:08:13;;;;;;;;;;;;;;;;;;348592;28;1009;-62
2022/09/19 00:08:23;;;;;;;;;;;;;;;;;;348654;28;841;-62
2022/09/19 00:08:35;;;;;;;;;;;;;;;;;;348591;28;1007;-62
2022/09/19 00:08:45;;;;;;;;;;;;;;;;;;348672;28;846;-63
2022/09/19 00:08:56;;;;;;;;;;;;;;;;;;348652;28;916;-63
2022/09/19 00:09:07;;;;;;;;;;;;;;;;;;348583;28;975;-63
2022/09/19 00:09:18;;;;;;;;;;;;;;;;;;348641;28;831;-62
2022/09/19 00:09:30;;;;;;;;;;;;;;;;;;348572;28;981;-62
2022/09/19 00:09:41;;;;;;;;;;;;;;;;;;348644;28;793;-62
2022/09/19 00:09:51;;;;;;;;;;;;;;;;;;348695;28;999;-62
2022/09/19 00:10:01;;;;;;;;;;;;;;;;;;348630;28;877;-62
2022/09/19 00:10:12;;;;;;;;;;;;;;;;;;348650;28;769;-62
2022/09/19 00:10:22;;;;;;;;;;;;;;;;;;348627;28;920;-62
2022/09/19 00:10:36;;;;;;;;;;;;;;;;;;348679;28;960;-62
2022/09/19 00:10:46;;;;;;;;;;;;;;;;;;348610;28;995;-63
2022/09/19 00:11:00;;;;;;;;;;;;;;;;;;348729;28;818;-62
2022/09/19 00:11:11;;;;;;;;;;;;;;;;;;348700;28;829;-63
2022/09/19 00:11:22;;;;;;;;;;;;;;;;;;348507;28;1755;-62
2022/09/19 00:11:32;;;;;;;;;;;;;;;;;;348630;28;1979;-62
2022/09/19 00:11:44;;;;;;;;;;;;;;;;;;348616;28;960;-62
2022/09/19 00:11:56;;;;;;;;;;;;;;;;;;348636;28;929;-62
2022/09/19 00:12:06;;;;;;;;;;;;;;;;;;348635;28;979;-63
2022/09/19 00:12:17;;;;;;;;;;;;;;;;;;348663;28;952;-62
2022/09/19 00:12:28;;;;;;;;;;;;;;;;;;348602;28;855;-63
2022/09/19 00:12:38;;;;;;;;;;;;;;;;;;348628;28;1000;-62
2022/09/19 00:12:49;;;;;;;;;;;;;;;;;;348675;28;900;-62
2022/09/19 00:12:59;;;;;;;;;;;;;;;;;;348549;28;925;-62
2022/09/19 00:13:09;;;;;;;;;;;;;;;;;;348412;28;1869;-62
2022/09/19 00:13:20;;;;;;;;;;;;;;;;;;349213;28;1514;-62
2022/09/19 00:13:31;;;;;;;;;;;;;;;;;;350009;28;968;-62
2022/09/19 00:13:44;;;;;;;;;;;;;;;;;;349959;28;979;-63
2022/09/19 00:13:56;;;;;;;;;;;;;;;;;;350018;28;921;-63
2022/09/19 00:14:07;;;;;;;;;;;;;;;;;;349999;28;940;-62
2022/09/19 00:14:18;;;;;;;;;;;;;;;;;;349673;28;2011;-62
2022/09/19 00:14:31;;;;;;;;;;;;;;;;;;351390;28;967;-62
2022/09/19 00:14:42;;;;;;;;;;;;;;;;;;351402;28;940;-62
2022/09/19 00:14:53;;;;;;;;;;;;;;;;;;351350;28;1047;-62
2022/09/19 00:15:03;;;;;;;;;;;;;;;;;;351413;28;1015;-62
2022/09/19 00:15:13;;;;;;;;;;;;;;;;;;350299;28;1982;-62
2022/09/19 00:15:24;;;;;;;;;;;;;;;;;;351372;28;913;-62
2022/09/19 00:15:45;;;;;;;;;;;;;;;;;;351386;28;975;-62
2022/09/19 00:15:56;;;;;;;;;;;;;;;;;;351446;28;932;-62
2022/09/19 00:16:07;;;;;;;;;;;;;;;;;;351402;28;940;-63
2022/09/19 00:16:19;;;;;;;;;;;;;;;;;;350175;28;1934;-62
2022/09/19 00:16:33;;;;;;;;;;;;;;;;;;351365;28;940;-62
2022/09/19 00:16:44;;;;;;;;;;;;;;;;;;351377;28;864;-62
2022/09/19 00:16:59;;;;;;;;;;;;;;;;;;351441;28;953;-62
2022/09/19 00:17:10;;;;;;;;;;;;;;;;;;351356;28;1123;-62
2022/09/19 00:17:20;;;;;;;;;;;;;;;;;;351422;28;936;-62
2022/09/19 00:17:30;;;;;;;;;;;;;;;;;;351387;28;896;-63
2022/09/19 00:17:40;;;;;;;;;;;;;;;;;;351413;28;473;-63
2022/09/19 00:17:50;;;;;;;;;;;;;;;;;;351401;28;924;-63
2022/09/19 00:18:01;;;;;;;;;;;;;;;;;;351448;28;833;-62
2022/09/19 00:18:11;;;;;;;;;;;;;;;;;;351450;28;1009;-62
2022/09/19 00:18:21;;;;;;;;;;;;;;;;;;351303;28;1035;-63
2022/09/19 00:18:32;;;;;;;;;;;;;;;;;;351432;28;841;-63
2022/09/19 00:18:42;;;;;;;;;;;;;;;;;;351464;28;999;-62
2022/09/19 00:18:53;;;;;;;;;;;;;;;;;;351433;28;917;-62
2022/09/19 00:19:04;;;;;;;;;;;;;;;;;;351429;28;996;-62
2022/09/19 00:19:17;;;;;;;;;;;;;;;;;;351339;28;1000;-62
2022/09/19 00:19:27;;;;;;;;;;;;;;;;;;351391;28;991;-62
2022/09/19 00:19:38;;;;;;;;;;;;;;;;;;351432;28;968;-62
2022/09/19 00:19:48;;;;;;;;;;;;;;;;;;351412;28;1126;-62
2022/09/19 00:19:58;;;;;;;;;;;;;;;;;;351355;28;1015;-62
2022/09/19 00:20:08;;;;;;;;;;;;;;;;;;351416;28;836;-63
2022/09/19 00:20:19;;;;;;;;;;;;;;;;;;351416;28;909;-62
2022/09/19 00:20:29;;;;;;;;;;;;;;;;;;351355;28;742;-62
2022/09/19 00:20:41;;;;;;;;;;;;;;;;;;351396;28;972;-62
2022/09/19 00:20:51;;;;;;;;;;;;;;;;;;351340;28;975;-63
2022/09/19 00:21:02;;;;;;;;;;;;;;;;;;351323;28;1311;-62
2022/09/19 00:21:18;;;;;;;;;;;;;;;;;;351413;28;1076;-63
2022/09/19 00:21:30;;;;;;;;;;;;;;;;;;351382;28;1270;-63
2022/09/19 00:21:42;;;;;;;;;;;;;;;;;;351428;28;936;-62
2022/09/19 00:21:53;;;;;;;;;;;;;;;;;;351324;28;1023;-62
2022/09/19 00:22:04;;;;;;;;;;;;;;;;;;349208;28;1398;-63
2022/09/19 00:22:14;;;;;;;;;;;;;;;;;;350052;28;1032;-62
2022/09/19 00:22:24;;;;;;;;;;;;;;;;;;349983;28;892;-62
2022/09/19 00:22:34;;;;;;;;;;;;;;;;;;349981;28;920;-62
2022/09/19 00:24:45;;;;;;;;;;;;;;;;;;349986;28;1003;-62
2022/09/19 00:24:46;;;;;;;;;;;;;;;;;;349990;28;936;-62
2022/09/19 00:24:56;;;;;;;;;;;;;;;;;;349982;28;1136;-63
2022/09/19 00:25:07;;;;;;;;;;;;;;;;;;349928;28;1098;-62
2022/09/19 00:25:17;;;;;;;;;;;;;;;;;;349935;28;924;-62
2022/09/19 00:25:28;;;;;;;;;;;;;;;;;;349966;28;984;-63
2022/09/19 00:25:38;;;;;;;;;;;;;;;;;;349963;28;940;-63
2022/09/19 00:25:56;;;;;;;;;;;;;;;;;;349995;28;853;-62
2022/09/19 00:26:07;;;;;;;;;;;;;;;;;;349983;28;816;-62
2022/09/19 00:26:19;;;;;;;;;;;;;;;;;;349947;28;767;-63
2022/09/19 00:26:29;;;;;;;;;;;;;;;;;;350009;28;877;-62
2022/09/19 00:26:40;;;;;;;;;;;;;;;;;;349883;28;901;-62
2022/09/19 00:26:50;;;;;;;;;;;;;;;;;;349967;28;810;-63
2022/09/19 00:27:03;;;;;;;;;;;;;;;;;;349994;28;932;-62
2022/09/19 00:27:15;;;;;;;;;;;;;;;;;;349973;28;1004;-62
2022/09/19 00:27:26;;;;;;;;;;;;;;;;;;349933;28;925;-63
2022/09/19 00:27:38;;;;;;;;;;;;;;;;;;349913;28;917;-62
2022/09/19 00:27:48;;;;;;;;;;;;;;;;;;349932;28;999;-63
2022/09/19 00:27:58;;;;;;;;;;;;;;;;;;349980;28;999;-62
2022/09/19 00:28:09;;;;;;;;;;;;;;;;;;350015;28;794;-62
2022/09/19 00:28:19;;;;;;;;;;;;;;;;;;349924;28;980;-63
2022/09/19 00:28:30;;;;;;;;;;;;;;;;;;350056;28;832;-62
2022/09/19 00:28:42;;;;;;;;;;;;;;;;;;349872;28;956;-62
2022/09/19 00:28:53;;;;;;;;;;;;;;;;;;349980;28;834;-62
2022/09/19 00:29:04;;;;;;;;;;;;;;;;;;349991;28;924;-62
2022/09/19 00:29:15;;;;;;;;;;;;;;;;;;349943;28;917;-62
2022/09/19 00:29:25;;;;;;;;;;;;;;;;;;349996;28;837;-62
2022/09/19 00:29:37;;;;;;;;;;;;;;;;;;349995;28;908;-62
2022/09/19 00:29:48;;;;;;;;;;;;;;;;;;349945;28;842;-62
2022/09/19 00:29:58;;;;;;;;;;;;;;;;;;350025;28;952;-62
2022/09/19 00:30:08;;;;;;;;;;;;;;;;;;350016;28;948;-63
2022/09/19 00:30:19;;;;;;;;;;;;;;;;;;349952;28;1090;-62
2022/09/19 00:30:29;;;;;;;;;;;;;;;;;;349994;28;972;-62
2022/09/19 00:30:39;;;;;;;;;;;;;;;;;;350062;28;759;-62
2022/09/19 00:30:49;;;;;;;;;;;;;;;;;;349964;28;987;-62
2022/09/19 00:31:01;;;;;;;;;;;;;;;;;;350044;28;972;-63
2022/09/19 00:31:17;;;;;;;;;;;;;;;;;;349872;28;1089;-63
2022/09/19 00:31:27;;;;;;;;;;;;;;;;;;349958;28;1910;-62
2022/09/19 00:31:37;;;;;;;;;;;;;;;;;;349956;28;991;-63
2022/09/19 00:31:48;;;;;;;;;;;;;;;;;;349978;28;916;-63
2022/09/19 00:31:58;;;;;;;;;;;;;;;;;;350000;28;1019;-62
2022/09/19 00:32:12;;;;;;;;;;;;;;;;;;349990;28;968;-63
2022/09/19 00:32:23;;;;;;;;;;;;;;;;;;349976;28;874;-63
2022/09/19 00:32:33;;;;;;;;;;;;;;;;;;349963;28;944;-62
2022/09/19 00:32:44;;;;;;;;;;;;;;;;;;349939;28;975;-63
2022/09/19 00:32:54;;;;;;;;;;;;;;;;;;349893;28;892;-65
2022/09/19 00:33:05;;;;;;;;;;;;;;;;;;350000;28;896;-62
2022/09/19 00:33:15;;;;;;;;;;;;;;;;;;349979;28;921;-62
2022/09/19 00:33:30;;;;;;;;;;;;;;;;;;350012;28;1194;-62
2022/09/19 00:33:40;;;;;;;;;;;;;;;;;;349887;28;1191;-62
2022/09/19 00:33:51;;;;;;;;;;;;;;;;;;349970;28;924;-62
2022/09/19 00:34:06;;;;;;;;;;;;;;;;;;350024;28;865;-62
2022/09/19 00:34:18;;;;;;;;;;;;;;;;;;350001;28;921;-62
2022/09/19 00:34:30;;;;;;;;;;;;;;;;;;349969;28;1012;-62
2022/09/19 00:34:41;;;;;;;;;;;;;;;;;;350013;28;809;-62
2022/09/19 00:34:54;;;;;;;;;;;;;;;;;;349896;28;925;-62
2022/09/19 00:35:05;;;;;;;;;;;;;;;;;;349928;28;957;-62
2022/09/19 00:35:15;;;;;;;;;;;;;;;;;;349984;28;996;-62
2022/09/19 00:35:26;;;;;;;;;;;;;;;;;;349974;28;944;-62
2022/09/19 00:35:37;;;;;;;;;;;;;;;;;;352559;28;1019;-62
2022/09/19 00:35:54;;;;;;;;;;;;;;;;;;352688;28;857;-62
2022/09/19 00:36:04;;;;;;;;;;;;;;;;;;352695;28;928;-62
2022/09/19 00:36:15;;;;;;;;;;;;;;;;;;352414;28;1397;-62
2022/09/19 00:36:26;;;;;;;;;;;;;;;;;;352094;28;1505;-62
2022/09/19 00:36:37;;;;;;;;;;;;;;;;;;352634;28;992;-62
2022/09/19 00:36:48;;;;;;;;;;;;;;;;;;352700;28;773;-62
2022/09/19 00:36:58;;;;;;;;;;;;;;;;;;352713;28;924;-62
2022/09/19 00:37:09;;;;;;;;;;;;;;;;;;352705;28;801;-62
2022/09/19 00:37:20;;;;;;;;;;;;;;;;;;352638;28;998;-62
2022/09/19 00:37:30;;;;;;;;;;;;;;;;;;351813;28;920;-62
2022/09/19 00:37:41;;;;;;;;;;;;;;;;;;349978;28;1019;-62
2022/09/19 00:37:51;;;;;;;;;;;;;;;;;;349986;28;932;-62
2022/09/19 00:38:02;;;;;;;;;;;;;;;;;;349980;28;971;-62
2022/09/19 00:38:12;;;;;;;;;;;;;;;;;;349948;28;853;-62
2022/09/19 00:38:26;;;;;;;;;;;;;;;;;;349973;28;968;-62
2022/09/19 00:38:36;;;;;;;;;;;;;;;;;;349949;28;929;-62
2022/09/19 00:38:46;;;;;;;;;;;;;;;;;;350003;28;774;-62
2022/09/19 00:38:57;;;;;;;;;;;;;;;;;;349951;28;846;-62
2022/09/19 00:39:08;;;;;;;;;;;;;;;;;;349901;28;975;-62
2022/09/19 00:39:19;;;;;;;;;;;;;;;;;;349985;28;820;-62
2022/09/19 00:39:29;;;;;;;;;;;;;;;;;;349996;28;941;-62
2022/09/19 00:39:40;;;;;;;;;;;;;;;;;;349933;28;944;-62
2022/09/19 00:39:50;;;;;;;;;;;;;;;;;;349981;28;877;-62
2022/09/19 00:40:00;;;;;;;;;;;;;;;;;;349982;28;864;-62
2022/09/19 00:40:11;;;;;;;;;;;;;;;;;;349982;28;1011;-62
2022/09/19 00:40:21;;;;;;;;;;;;;;;;;;349994;28;921;-62
2022/09/19 00:40:31;;;;;;;;;;;;;;;;;;349992;28;928;-62
2022/09/19 00:40:41;;;;;;;;;;;;;;;;;;349884;28;829;-62
2022/09/19 00:40:52;;;;;;;;;;;;;;;;;;349858;28;900;-62
2022/09/19 00:41:02;;;;;;;;;;;;;;;;;;349811;28;940;-62
2022/09/19 00:41:13;;;;;;;;;;;;;;;;;;349887;28;1008;-62
2022/09/19 00:41:27;;;;;;;;;;;;;;;;;;349859;28;1078;-62
2022/09/19 00:41:37;;;;;;;;;;;;;;;;;;349999;28;917;-62
2022/09/19 00:41:48;;;;;;;;;;;;;;;;;;349965;28;980;-62
2022/09/19 00:41:58;;;;;;;;;;;;;;;;;;349929;28;912;-62
2022/09/19 00:42:19;;;;;;;;;;;;;;;;;;349962;28;964;-62
2022/09/19 00:42:30;;;;;;;;;;;;;;;;;;349986;28;845;-62
2022/09/19 00:42:40;;;;;;;;;;;;;;;;;;349980;28;1002;-62
2022/09/19 00:42:50;;;;;;;;;;;;;;;;;;349906;28;1459;-62
2022/09/19 00:43:00;;;;;;;;;;;;;;;;;;349977;28;868;-62
2022/09/19 00:43:13;;;;;;;;;;;;;;;;;;349964;28;916;-62
2022/09/19 00:43:25;;;;;;;;;;;;;;;;;;348714;28;1951;-62
2022/09/19 00:43:46;;;;;;;;;;;;;;;;;;348541;28;913;-62
2022/09/19 00:43:58;;;;;;;;;;;;;;;;;;349674;28;1948;-62
2022/09/19 00:44:23;;;;;;;;;;;;;;;;;;351386;28;932;-62
2022/09/19 00:44:33;;;;;;;;;;;;;;;;;;351313;28;984;-62
2022/09/19 00:44:45;;;;;;;;;;;;;;;;;;351343;28;924;-62
2022/09/19 00:44:57;;;;;;;;;;;;;;;;;;349650;28;1324;-62
2022/09/19 00:45:12;;;;;;;;;;;;;;;;;;348578;28;960;-62
2022/09/19 00:45:23;;;;;;;;;;;;;;;;;;348523;28;901;-62
2022/09/19 00:45:33;;;;;;;;;;;;;;;;;;348565;28;1815;-62
2022/09/19 00:45:43;;;;;;;;;;;;;;;;;;348578;28;968;-62
2022/09/19 00:45:53;;;;;;;;;;;;;;;;;;348574;28;937;-62
2022/09/19 00:46:04;;;;;;;;;;;;;;;;;;348486;28;1403;-62
2022/09/19 00:46:14;;;;;;;;;;;;;;;;;;348555;28;1012;-62
2022/09/19 00:46:26;;;;;;;;;;;;;;;;;;348609;28;1020;-62
2022/09/19 00:46:36;;;;;;;;;;;;;;;;;;348577;28;897;-62
2022/09/19 00:46:49;;;;;;;;;;;;;;;;;;348597;28;834;-62
2022/09/19 00:47:02;;;;;;;;;;;;;;;;;;348580;28;996;-62
2022/09/19 00:47:15;;;;;;;;;;;;;;;;;;348543;28;850;-62
2022/09/19 00:47:29;;;;;;;;;;;;;;;;;;348593;28;937;-62
2022/09/19 00:47:42;;;;;;;;;;;;;;;;;;348511;28;925;-62
2022/09/19 00:47:53;;;;;;;;;;;;;;;;;;348569;28;846;-61
2022/09/19 00:48:03;;;;;;;;;;;;;;;;;;348560;28;984;-62
2022/09/19 00:48:15;;;;;;;;;;;;;;;;;;348558;28;774;-62
2022/09/19 00:48:26;;;;;;;;;;;;;;;;;;348602;28;928;-62
2022/09/19 00:48:41;;;;;;;;;;;;;;;;;;348569;28;949;-61
2022/09/19 00:48:55;;;;;;;;;;;;;;;;;;348597;28;867;-62
2022/09/19 00:49:09;;;;;;;;;;;;;;;;;;348571;28;924;-62
2022/09/19 00:49:20;;;;;;;;;;;;;;;;;;348582;28;996;-62
2022/09/19 00:49:32;;;;;;;;;;;;;;;;;;348574;28;857;-62
2022/09/19 00:49:44;;;;;;;;;;;;;;;;;;348527;28;770;-62
2022/09/19 00:49:56;;;;;;;;;;;;;;;;;;348552;28;933;-62
2022/09/19 00:50:12;;;;;;;;;;;;;;;;;;348586;28;941;-62
2022/09/19 00:50:27;;;;;;;;;;;;;;;;;;348607;28;979;-62
2022/09/19 00:50:38;;;;;;;;;;;;;;;;;;348597;28;992;-62
2022/09/19 00:50:52;;;;;;;;;;;;;;;;;;348573;28;984;-62
2022/09/19 00:51:04;;;;;;;;;;;;;;;;;;348244;28;1415;-62
2022/09/19 00:51:18;;;;;;;;;;;;;;;;;;348507;28;878;-62
2022/09/19 00:51:31;;;;;;;;;;;;;;;;;;348544;28;1971;-62
2022/09/19 00:51:49;;;;;;;;;;;;;;;;;;348505;28;876;-62
2022/09/19 00:52:02;;;;;;;;;;;;;;;;;;348609;28;924;-62
2022/09/19 00:52:15;;;;;;;;;;;;;;;;;;348558;28;920;-62
2022/09/19 00:52:51;;;;;;;;;;;;;;;;;;348584;28;952;-62
2022/09/19 00:53:04;;;;;;;;;;;;;;;;;;348330;28;1048;-63
2022/09/19 00:53:17;;;;;;;;;;;;;;;;;;348596;28;937;-62
2022/09/19 00:53:30;;;;;;;;;;;;;;;;;;348585;28;952;-62
2022/09/19 00:53:41;;;;;;;;;;;;;;;;;;348462;28;975;-62
2022/09/19 00:53:51;;;;;;;;;;;;;;;;;;348609;28;791;-62
2022/09/19 00:54:04;;;;;;;;;;;;;;;;;;348583;28;925;-62
2022/09/19 00:54:19;;;;;;;;;;;;;;;;;;348528;28;992;-62
2022/09/19 00:54:32;;;;;;;;;;;;;;;;;;348573;28;972;-62
2022/09/19 00:54:44;;;;;;;;;;;;;;;;;;348562;28;933;-62
2022/09/19 00:54:56;;;;;;;;;;;;;;;;;;348612;28;968;-62
2022/09/19 00:55:07;;;;;;;;;;;;;;;;;;348551;28;940;-62
2022/09/19 00:55:17;;;;;;;;;;;;;;;;;;348547;28;964;-62
2022/09/19 00:55:28;;;;;;;;;;;;;;;;;;348590;28;801;-62
2022/09/19 00:55:39;;;;;;;;;;;;;;;;;;348603;28;837;-62
2022/09/19 00:55:52;;;;;;;;;;;;;;;;;;348482;28;991;-62
2022/09/19 00:56:04;;;;;;;;;;;;;;;;;;348580;28;925;-62
2022/09/19 00:56:16;;;;;;;;;;;;;;;;;;348562;28;976;-62
2022/09/19 00:56:27;;;;;;;;;;;;;;;;;;348524;28;778;-62
2022/09/19 00:56:40;;;;;;;;;;;;;;;;;;348572;28;921;-62
2022/09/19 00:56:54;;;;;;;;;;;;;;;;;;348565;28;1004;-62
2022/09/19 00:57:04;;;;;;;;;;;;;;;;;;348536;28;944;-62
2022/09/19 00:57:15;;;;;;;;;;;;;;;;;;348488;28;747;-62
2022/09/19 00:57:35;;;;;;;;;;;;;;;;;;348577;28;980;-62
2022/09/19 00:58:05;;;;;;;;;;;;;;;;;;348530;28;727;-62
2022/09/19 00:58:19;;;;;;;;;;;;;;;;;;348311;28;1218;-62
2022/09/19 00:58:32;;;;;;;;;;;;;;;;;;348385;28;1027;-62
2022/09/19 00:58:44;;;;;;;;;;;;;;;;;;348478;28;1078;-62
2022/09/19 00:58:56;;;;;;;;;;;;;;;;;;348510;28;913;-62
2022/09/19 00:59:07;;;;;;;;;;;;;;;;;;348581;28;944;-62
2022/09/19 00:59:18;;;;;;;;;;;;;;;;;;348560;28;992;-62
2022/09/19 00:59:30;;;;;;;;;;;;;;;;;;348414;28;1197;-62
2022/09/19 00:59:41;;;;;;;;;;;;;;;;;;348602;28;960;-62
2022/09/19 00:59:52;;;;;;;;;;;;;;;;;;348566;28;1020;-62
2022/09/19 01:00:04;;;;;;;;;;;;;;;;;;348464;28;964;-62
2022/09/19 01:00:14;;;;;;;;;;;;;;;;;;348571;28;929;-62
2022/09/19 01:00:25;;;;;;;;;;;;;;;;;;348598;28;910;-62
2022/09/19 01:00:35;;;;;;;;;;;;;;;;;;348628;28;933;-62
2022/09/19 01:00:46;;;;;;;;;;;;;;;;;;348579;28;834;-62
2022/09/19 01:00:57;;;;;;;;;;;;;;;;;;348550;28;984;-62
2022/09/19 01:01:07;;;;;;;;;;;;;;;;;;348559;28;1009;-62
2022/09/19 01:01:18;;;;;;;;;;;;;;;;;;348523;28;940;-62
2022/09/19 01:01:28;;;;;;;;;;;;;;;;;;348602;28;850;-62
2022/09/19 01:01:39;;;;;;;;;;;;;;;;;;348580;28;1046;-62
2022/09/19 01:01:51;;;;;;;;;;;;;;;;;;348539;28;928;-62
2022/09/19 01:02:03;;;;;;;;;;;;;;;;;;348587;28;816;-62
2022/09/19 01:02:16;;;;;;;;;;;;;;;;;;348544;28;831;-62
2022/09/19 01:02:28;;;;;;;;;;;;;;;;;;348520;28;957;-62
2022/09/19 01:02:41;;;;;;;;;;;;;;;;;;348655;28;779;-62
2022/09/19 01:02:51;;;;;;;;;;;;;;;;;;348563;28;949;-62
2022/09/19 01:03:05;;;;;;;;;;;;;;;;;;348584;28;798;-62
2022/09/19 01:03:15;;;;;;;;;;;;;;;;;;348598;28;987;-62
2022/09/19 01:03:27;;;;;;;;;;;;;;;;;;348540;28;757;-62
2022/09/19 01:03:37;;;;;;;;;;;;;;;;;;348575;28;925;-62
2022/09/19 01:03:47;;;;;;;;;;;;;;;;;;348519;28;976;-62
2022/09/19 01:03:58;;;;;;;;;;;;;;;;;;348612;28;913;-62
2022/09/19 01:04:14;;;;;;;;;;;;;;;;;;348500;28;850;-62
2022/09/19 01:04:25;;;;;;;;;;;;;;;;;;348571;28;940;-62
2022/09/19 01:04:36;;;;;;;;;;;;;;;;;;348590;28;884;-62
2022/09/19 01:04:46;;;;;;;;;;;;;;;;;;348548;28;956;-62
2022/09/19 01:04:56;;;;;;;;;;;;;;;;;;348605;28;921;-62
2022/09/19 01:05:07;;;;;;;;;;;;;;;;;;348588;28;992;-62
2022/09/19 01:05:23;;;;;;;;;;;;;;;;;;348604;28;778;-62
2022/09/19 01:05:46;;;;;;;;;;;;;;;;;;348573;28;953;-62
2022/09/19 01:06:06;;;;;;;;;;;;;;;;;;349583;28;1498;-62
2022/09/19 01:06:23;;;;;;;;;;;;;;;;;;349859;28;921;-63
2022/09/19 01:06:35;;;;;;;;;;;;;;;;;;349966;28;787;-62
2022/09/19 01:07:04;;;;;;;;;;;;;;;;;;349971;28;1003;-62
2022/09/19 01:07:21;;;;;;;;;;;;;;;;;;349886;28;957;-62
2022/09/19 01:07:43;;;;;;;;;;;;;;;;;;349857;28;980;-62
2022/09/19 01:08:20;;;;;;;;;;;;;;;;;;349920;28;1082;-62
2022/09/19 01:08:49;;;;;;;;;;;;;;;;;;351133;28;1209;-62
2022/09/19 01:09:18;;;;;;;;;;;;;;;;;;351053;28;1290;-62
2022/09/19 01:09:36;;;;;;;;;;;;;;;;;;349890;28;1390;-62
2022/09/19 01:09:49;;;;;;;;;;;;;;;;;;349917;28;1008;-62
2022/09/19 01:10:18;;;;;;;;;;;;;;;;;;350006;28;920;-61
2022/09/19 01:10:39;;;;;;;;;;;;;;;;;;349973;28;941;-62
2022/09/19 01:11:04;;;;;;;;;;;;;;;;;;349992;28;928;-62
2022/09/19 01:11:32;;;;;;;;;;;;;;;;;;349903;28;925;-62
2022/09/19 01:11:58;;;;;;;;;;;;;;;;;;349908;28;869;-62
2022/09/19 01:12:16;;;;;;;;;;;;;;;;;;349906;28;790;-62
2022/09/19 01:12:34;;;;;;;;;;;;;;;;;;349956;28;980;-62
2022/09/19 01:12:47;;;;;;;;;;;;;;;;;;349939;28;1228;-62
2022/09/19 01:13:09;;;;;;;;;;;;;;;;;;348920;28;1872;-62
2022/09/19 01:13:22;;;;;;;;;;;;;;;;;;348655;28;869;-62
2022/09/19 01:13:38;;;;;;;;;;;;;;;;;;348579;28;877;-62
2022/09/19 01:13:59;;;;;;;;;;;;;;;;;;348581;28;952;-62
2022/09/19 01:14:37;;;;;;;;;;;;;;;;;;348574;28;988;-62
2022/09/19 01:14:53;;;;;;;;;;;;;;;;;;348661;28;782;-62
2022/09/19 01:15:19;;;;;;;;;;;;;;;;;;348573;28;925;-63
2022/09/19 01:15:38;;;;;;;;;;;;;;;;;;348135;28;1351;-62
2022/09/19 01:15:56;;;;;;;;;;;;;;;;;;348513;28;972;-62
2022/09/19 01:16:13;;;;;;;;;;;;;;;;;;348578;28;849;-62
2022/09/19 01:16:32;;;;;;;;;;;;;;;;;;348531;28;984;-62
2022/09/19 01:16:50;;;;;;;;;;;;;;;;;;348452;28;936;-62
2022/09/19 01:17:09;;;;;;;;;;;;;;;;;;348553;28;933;-63
2022/09/19 01:17:22;;;;;;;;;;;;;;;;;;348219;28;1402;-62
2022/09/19 01:17:46;;;;;;;;;;;;;;;;;;348536;28;952;-62
2022/09/19 01:17:58;;;;;;;;;;;;;;;;;;348560;28;936;-62
2022/09/19 01:18:09;;;;;;;;;;;;;;;;;;348544;28;924;-62
2022/09/19 01:18:26;;;;;;;;;;;;;;;;;;348539;28;925;-62
2022/09/19 01:18:48;;;;;;;;;;;;;;;;;;348520;28;953;-62
2022/09/19 01:19:05;;;;;;;;;;;;;;;;;;348534;28;1008;-62
2022/09/19 01:19:31;;;;;;;;;;;;;;;;;;348558;28;921;-62
2022/09/19 01:19:53;;;;;;;;;;;;;;;;;;348487;28;1093;-62
2022/09/19 01:20:04;;;;;;;;;;;;;;;;;;348560;28;987;-62
2022/09/19 01:20:24;;;;;;;;;;;;;;;;;;348581;28;881;-62
2022/09/19 01:20:51;;;;;;;;;;;;;;;;;;348564;28;921;-62
2022/09/19 01:21:51;;;;;;;;;;;;;;;;;;351254;28;798;-62
2022/09/19 01:22:07;;;;;;;;;;;;;;;;;;351359;28;975;-62
2022/09/19 01:22:43;;;;;;;;;;;;;;;;;;351339;28;960;-62
2022/09/19 01:23:05;;;;;;;;;;;;;;;;;;351221;28;1011;-62
2022/09/19 01:23:22;;;;;;;;;;;;;;;;;;351314;28;1092;-62
2022/09/19 01:23:45;;;;;;;;;;;;;;;;;;351272;28;904;-62
2022/09/19 01:24:04;;;;;;;;;;;;;;;;;;351360;28;857;-62
2022/09/19 01:24:37;;;;;;;;;;;;;;;;;;351346;28;1201;-62
2022/09/19 01:25:08;;;;;;;;;;;;;;;;;;351299;28;916;-62
2022/09/19 01:25:18;;;;;;;;;;;;;;;;;;351342;28;924;-62
2022/09/19 01:25:51;;;;;;;;;;;;;;;;;;351258;28;996;-62
2022/09/19 01:26:06;;;;;;;;;;;;;;;;;;351166;28;1381;-62
2022/09/19 01:26:31;;;;;;;;;;;;;;;;;;351294;28;984;-62
2022/09/19 01:26:41;;;;;;;;;;;;;;;;;;351336;28;844;-62
2022/09/19 01:26:59;;;;;;;;;;;;;;;;;;351358;28;1050;-62
2022/09/19 01:27:18;;;;;;;;;;;;;;;;;;351352;28;1020;-62
2022/09/19 01:27:38;;;;;;;;;;;;;;;;;;351342;28;1059;-62
2022/09/19 01:28:06;;;;;;;;;;;;;;;;;;351318;28;884;-62
2022/09/19 01:28:29;;;;;;;;;;;;;;;;;;351408;28;924;-62
2022/09/19 01:28:43;;;;;;;;;;;;;;;;;;351268;28;949;-62
2022/09/19 01:28:55;;;;;;;;;;;;;;;;;;351332;28;944;-62
2022/09/19 01:29:20;;;;;;;;;;;;;;;;;;351311;27;924;-62
2022/09/19 01:30:06;;;;;;;;;;;;;;;;;;351290;28;1002;-62
2022/09/19 01:30:17;;;;;;;;;;;;;;;;;;349713;28;959;-62
2022/09/19 01:30:27;;;;;;;;;;;;;;;;;;349709;28;1234;-63
2022/09/19 01:30:41;;;;;;;;;;;;;;;;;;349840;28;844;-62
2022/09/19 01:31:17;;;;;;;;;;;;;;;;;;349789;28;947;-62
2022/09/19 01:31:34;;;;;;;;;;;;;;;;;;349694;28;1901;-62
2022/09/19 01:31:47;;;;;;;;;;;;;;;;;;348133;28;1917;-62
2022/09/19 01:31:59;;;;;;;;;;;;;;;;;;347593;28;1549;-62
2022/09/19 01:32:11;;;;;;;;;;;;;;;;;;348341;28;1039;-62
2022/09/19 01:32:24;;;;;;;;;;;;;;;;;;348425;28;900;-62
2022/09/19 01:32:37;;;;;;;;;;;;;;;;;;348359;28;1918;-62
2022/09/19 01:32:56;;;;;;;;;;;;;;;;;;349749;28;1030;-62
2022/09/19 01:33:11;;;;;;;;;;;;;;;;;;350227;28;1016;-62
2022/09/19 01:33:21;;;;;;;;;;;;;;;;;;350183;28;1351;-62
2022/09/19 01:33:31;;;;;;;;;;;;;;;;;;349398;28;1612;-62
2022/09/19 01:33:45;;;;;;;;;;;;;;;;;;348767;28;2037;-62
2022/09/19 01:34:07;;;;;;;;;;;;;;;;;;350612;28;1023;-62
2022/09/19 01:34:17;;;;;;;;;;;;;;;;;;351311;28;829;-62
2022/09/19 01:34:33;;;;;;;;;;;;;;;;;;351316;28;976;-62
2022/09/19 01:34:46;;;;;;;;;;;;;;;;;;351302;28;995;-62
2022/09/19 01:34:59;;;;;;;;;;;;;;;;;;351345;28;932;-62
2022/09/19 01:35:13;;;;;;;;;;;;;;;;;;351293;28;769;-62
2022/09/19 01:35:28;;;;;;;;;;;;;;;;;;351289;28;794;-62
2022/09/19 01:35:40;;;;;;;;;;;;;;;;;;351333;28;1022;-62
2022/09/19 01:35:53;;;;;;;;;;;;;;;;;;350104;28;1915;-62
2022/09/19 01:36:05;;;;;;;;;;;;;;;;;;351239;28;837;-62
2022/09/19 01:36:16;;;;;;;;;;;;;;;;;;351342;28;849;-62
2022/09/19 01:36:30;;;;;;;;;;;;;;;;;;351333;28;908;-62
2022/09/19 01:37:00;;;;;;;;;;;;;;;;;;351332;28;1070;-63
2022/09/19 01:37:13;;;;;;;;;;;;;;;;;;351321;28;979;-62
2022/09/19 01:37:28;;;;;;;;;;;;;;;;;;351317;28;856;-62
2022/09/19 01:37:43;;;;;;;;;;;;;;;;;;351274;28;920;-62
2022/09/19 01:38:00;;;;;;;;;;;;;;;;;;351342;28;995;-62
2022/09/19 01:38:13;;;;;;;;;;;;;;;;;;351362;28;924;-62
2022/09/19 01:38:25;;;;;;;;;;;;;;;;;;351344;28;959;-62